createdAt,value
2023-02-13T00:04:24.401Z,-65
2023-02-13T00:09:25.646Z,-64
2023-02-13T00:14:26.848Z,-64
2023-02-13T00:19:28.014Z,-64
2023-02-13T00:24:29.261Z,-64
2023-02-13T00:29:30.464Z,-64
2023-02-13T00:34:31.652Z,-64
2023-02-13T00:39:32.884Z,-64
2023-02-13T00:44:34.145Z,-65
2023-02-13T00:49:35.323Z,-64
2023-02-13T00:54:36.551Z,-64
2023-02-13T00:59:37.812Z,-65
2023-02-13T01:04:39.033Z,-64
2023-02-13T01:09:40.277Z,-65
2023-02-13T01:14:41.498Z,-64
2023-02-13T01:19:42.755Z,-64
2023-02-13T01:24:43.985Z,-64
2023-02-13T01:29:45.160Z,-64
2023-02-13T01:34:46.373Z,-64
2023-02-13T01:39:47.783Z,-65
2023-02-13T01:44:49.044Z,-64
2023-02-13T01:49:50.298Z,-64
2023-02-13T01:54:52.974Z,-64
2023-02-13T01:59:54.133Z,-64
2023-02-13T02:04:55.383Z,-64
2023-02-13T02:09:56.567Z,-64
2023-02-13T02:14:57.775Z,-64
2023-02-13T02:19:59.003Z,-64
2023-02-13T02:25:00.588Z,-64
2023-02-13T02:30:01.795Z,-64
2023-02-13T02:35:03.054Z,-64
2023-02-13T02:40:04.357Z,-64
2023-02-13T02:45:05.819Z,-64
2023-02-13T02:50:07.042Z,-64
2023-02-13T02:55:08.356Z,-64
2023-02-13T03:00:28.562Z,-64
2023-02-13T03:05:48.474Z,-64
2023-02-13T03:11:08.285Z,-65
2023-02-13T03:16:28.173Z,-64
2023-02-13T03:21:47.918Z,-64
2023-02-13T03:26:51.965Z,-65
2023-02-13T03:31:54.104Z,-64
2023-02-13T03:37:14.198Z,-64
2023-02-13T03:42:15.440Z,-64
2023-02-13T03:47:16.646Z,-65
2023-02-13T03:52:18.003Z,-64
2023-02-13T03:57:37.790Z,-64
2023-02-13T04:02:38.991Z,-64
2023-02-13T04:07:40.198Z,-64
2023-02-13T04:12:41.444Z,-64
2023-02-13T04:17:42.619Z,-64
2023-02-13T04:22:43.853Z,-64
2023-02-13T04:27:45.057Z,-64
2023-02-13T04:32:46.338Z,-64
2023-02-13T04:37:47.546Z,-64
2023-02-13T04:42:49.158Z,-64
2023-02-13T04:47:50.452Z,-64
2023-02-13T04:52:51.704Z,-64
2023-02-13T04:57:53.490Z,-64
2023-02-13T05:02:54.721Z,-64
2023-02-13T05:07:55.949Z,-64
2023-02-13T05:12:57.190Z,-64
2023-02-13T05:17:58.425Z,-64
2023-02-13T05:23:18.409Z,-64
2023-02-13T05:28:38.226Z,-65
2023-02-13T05:33:39.548Z,-64
2023-02-13T05:38:41.243Z,-64
2023-02-13T05:43:42.485Z,-64
2023-02-13T05:48:43.728Z,-65
2023-02-13T05:53:44.958Z,-64
2023-02-13T05:58:47.402Z,-64
2023-02-13T06:03:48.703Z,-64
2023-02-13T06:08:49.963Z,-64
2023-02-13T06:13:51.154Z,-64
2023-02-13T06:18:52.380Z,-64
2023-02-13T06:23:53.651Z,-64
2023-02-13T06:28:54.815Z,-65
2023-02-13T06:33:56.101Z,-65
2023-02-13T06:38:57.337Z,-64
2023-02-13T06:43:58.600Z,-65
2023-02-13T06:48:59.828Z,-65
2023-02-13T06:54:01.099Z,-65
2023-02-13T06:59:02.298Z,-65
2023-02-13T07:04:03.459Z,-64
2023-02-13T07:09:04.679Z,-65
2023-02-13T07:14:05.923Z,-64
2023-02-13T07:19:07.183Z,-65
2023-02-13T07:24:08.401Z,-64
2023-02-13T07:29:11.952Z,-65
2023-02-13T07:34:13.420Z,-65
2023-02-13T07:39:14.713Z,-65
2023-02-13T07:44:15.882Z,-65
2023-02-13T07:49:17.036Z,-64
2023-02-13T07:54:18.293Z,-64
2023-02-13T07:59:19.499Z,-64
2023-02-13T08:04:20.728Z,-65
2023-02-13T08:09:41.129Z,-64
2023-02-13T08:14:42.328Z,-65
2023-02-13T08:19:43.550Z,-64
2023-02-13T08:24:44.754Z,-66
2023-02-13T08:29:45.931Z,-64
2023-02-13T08:34:47.185Z,-65
2023-02-13T08:39:48.436Z,-64
2023-02-13T08:44:49.698Z,-64
2023-02-13T08:49:50.882Z,-68
2023-02-13T08:54:52.070Z,-64
2023-02-13T08:59:53.246Z,-65
2023-02-13T09:04:54.412Z,-65
2023-02-13T09:09:55.656Z,-65
2023-02-13T09:14:56.932Z,-65
2023-02-13T09:19:58.124Z,-65
2023-02-13T09:25:01.002Z,-65
2023-02-13T09:30:02.236Z,-65
2023-02-13T09:35:03.586Z,-65
2023-02-13T09:40:04.750Z,-65
2023-02-13T09:45:05.965Z,-65
2023-02-13T09:50:07.238Z,-65
2023-02-13T09:55:08.513Z,-65
2023-02-13T10:00:13.267Z,-65
2023-02-13T10:05:14.584Z,-65
2023-02-13T10:10:18.128Z,-65
2023-02-13T10:15:19.316Z,-65
2023-02-13T10:20:20.560Z,-66
2023-02-13T10:25:21.739Z,-65
2023-02-13T10:30:22.942Z,-66
2023-02-13T10:35:24.116Z,-66
2023-02-13T10:40:25.316Z,-66
2023-02-13T10:45:26.591Z,-66
2023-02-13T10:50:27.844Z,-66
2023-02-13T10:55:29.055Z,-66
2023-02-13T11:00:31.336Z,-66
2023-02-13T11:05:32.565Z,-66
2023-02-13T11:10:33.768Z,-66
2023-02-13T11:15:35.013Z,-66
2023-02-13T11:20:36.355Z,-66
2023-02-13T11:25:37.560Z,-66
2023-02-13T11:30:38.781Z,-66
2023-02-13T11:35:40.014Z,-66
2023-02-13T11:40:41.732Z,-66
2023-02-13T11:45:43.022Z,-66
2023-02-13T11:50:46.235Z,-68
2023-02-13T11:55:47.472Z,-66
2023-02-13T12:00:48.680Z,-66
2023-02-13T12:05:49.905Z,-66
2023-02-13T12:10:51.108Z,-67
2023-02-13T12:15:52.288Z,-66
2023-02-13T12:20:53.530Z,-67
2023-02-13T12:25:54.737Z,-67
2023-02-13T12:30:55.986Z,-66
2023-02-13T12:35:57.384Z,-67
2023-02-13T12:40:59.205Z,-68
2023-02-13T12:46:00.799Z,-70
2023-02-13T12:51:02.051Z,-70
2023-02-13T12:56:05.774Z,-68
2023-02-13T13:01:07.016Z,-70
2023-02-13T13:06:12.155Z,-68
2023-02-13T13:11:13.775Z,-68
2023-02-13T13:16:16.750Z,-68
2023-02-13T13:21:18.272Z,-68
2023-02-13T13:26:21.296Z,-69
2023-02-13T13:31:24.194Z,-68
2023-02-13T13:36:25.495Z,-68
2023-02-13T13:41:26.663Z,-68
2023-02-13T13:46:27.929Z,-68
2023-02-13T13:51:30.622Z,-67
2023-02-13T13:56:31.839Z,-68
2023-02-13T14:01:33.143Z,-68
2023-02-13T14:06:34.371Z,-69
2023-02-13T14:11:35.579Z,-67
2023-02-13T14:16:36.817Z,-67
2023-02-13T14:21:38.027Z,-66
2023-02-13T14:26:39.197Z,-66
2023-02-13T14:31:40.565Z,-66
2023-02-13T14:36:42.024Z,-67
2023-02-13T14:41:43.304Z,-67
2023-02-13T14:46:47.986Z,-67
2023-02-13T14:51:50.063Z,-67
2023-02-13T14:56:51.227Z,-66
2023-02-13T15:01:53.060Z,-67
2023-02-13T15:06:54.405Z,-66
2023-02-13T15:11:55.584Z,-67
2023-02-13T15:16:56.882Z,-66
2023-02-13T15:21:58.090Z,-66
2023-02-13T15:26:59.671Z,-66
2023-02-13T15:32:01.011Z,-66
2023-02-13T15:37:03.369Z,-68
2023-02-13T15:42:04.567Z,-67
2023-02-13T15:47:07.370Z,-69
2023-02-13T15:52:08.722Z,-70
2023-02-13T15:57:09.894Z,-67
2023-02-13T16:02:11.151Z,-67
2023-02-13T16:07:12.449Z,-67
2023-02-13T16:12:13.626Z,-69
2023-02-13T16:17:14.906Z,-69
2023-02-13T16:22:16.193Z,-66
2023-02-13T16:27:17.444Z,-67
2023-02-13T16:32:18.738Z,-66
2023-02-13T16:37:19.959Z,-68
2023-02-13T16:42:21.181Z,-66
2023-02-13T16:47:22.377Z,-65
2023-02-13T16:52:26.217Z,-67
2023-02-13T16:57:27.506Z,-65
2023-02-13T17:02:28.763Z,-66
2023-02-13T17:07:30.053Z,-66
2023-02-13T17:12:31.342Z,-65
2023-02-13T17:17:32.567Z,-65
2023-02-13T17:22:33.825Z,-65
2023-02-13T17:27:35.059Z,-66
2023-02-13T17:32:36.277Z,-65
2023-02-13T17:37:43.113Z,-65
2023-02-13T17:42:44.370Z,-67
2023-02-13T17:47:45.613Z,-63
2023-02-13T17:52:47.550Z,-68
2023-02-13T17:57:48.725Z,-64
2023-02-13T18:02:49.921Z,-64
2023-02-13T18:07:51.164Z,-64
2023-02-13T18:12:52.316Z,-64
2023-02-13T18:17:53.510Z,-63
2023-02-13T18:22:54.637Z,-64
2023-02-13T18:27:55.863Z,-67
2023-02-13T18:32:58.775Z,-66
2023-02-13T18:37:59.931Z,-69
2023-02-13T18:43:01.098Z,-66
2023-02-13T18:48:02.878Z,-68
2023-02-13T18:53:04.057Z,-64
2023-02-13T18:58:05.270Z,-65
2023-02-13T19:03:06.419Z,-65
2023-02-13T19:08:07.647Z,-64
2023-02-13T19:13:08.820Z,-65
2023-02-13T19:18:09.999Z,-64
2023-02-13T19:23:11.259Z,-65
2023-02-13T19:28:12.394Z,-65
2023-02-13T19:33:13.576Z,-66
2023-02-13T19:38:15.758Z,-66
2023-02-13T19:43:16.941Z,-63
2023-02-13T19:48:18.081Z,-65
2023-02-13T19:53:19.356Z,-69
2023-02-13T19:58:20.572Z,-67
2023-02-13T20:03:21.812Z,-63
2023-02-13T20:08:22.957Z,-64
2023-02-13T20:13:24.193Z,-67
2023-02-13T20:18:25.362Z,-64
2023-02-13T20:23:26.535Z,-67
2023-02-13T20:28:27.833Z,-64
2023-02-13T20:33:28.974Z,-68
2023-02-13T20:38:30.167Z,-64
2023-02-13T20:43:32.618Z,-65
2023-02-13T20:48:33.750Z,-65
2023-02-13T20:53:34.973Z,-65
2023-02-13T20:58:36.138Z,-65
2023-02-13T21:03:37.343Z,-65
2023-02-13T21:08:38.553Z,-65
2023-02-13T21:13:40.150Z,-65
2023-02-13T21:18:41.296Z,-65
2023-02-13T21:23:42.423Z,-65
2023-02-13T21:28:43.598Z,-65
2023-02-13T21:33:44.787Z,-65
2023-02-13T21:38:45.967Z,-65
2023-02-13T21:43:47.118Z,-65
2023-02-13T21:48:48.267Z,-64
2023-02-13T21:53:49.405Z,-64
2023-02-13T21:58:50.637Z,-64
2023-02-13T22:03:51.809Z,-64
2023-02-13T22:08:53.016Z,-67
2023-02-13T22:13:54.156Z,-64
2023-02-13T22:18:55.394Z,-71
2023-02-13T22:23:56.546Z,-64
2023-02-13T22:28:57.713Z,-64
2023-02-13T22:34:03.920Z,-64
2023-02-13T22:39:06.138Z,-64
2023-02-13T22:44:07.321Z,-64
2023-02-13T22:49:08.586Z,-64
2023-02-13T22:54:09.763Z,-64
2023-02-13T22:59:10.910Z,-65
2023-02-13T23:04:12.600Z,-64
2023-02-13T23:09:13.848Z,-64
2023-02-13T23:14:15.026Z,-64
2023-02-13T23:19:16.280Z,-64
2023-02-13T23:24:17.462Z,-64
2023-02-13T23:29:18.682Z,-63
2023-02-13T23:34:19.970Z,-64
2023-02-13T23:39:21.345Z,-63
2023-02-13T23:44:22.478Z,-63
2023-02-13T23:49:23.682Z,-63
2023-02-13T23:54:24.991Z,-63
2023-02-13T23:59:26.162Z,-63
